sensor_id;sensor_type;location;lat;lon;timestamp;pressure;altitude;pressure_sealevel;temperature;humidity
3428;BME280;1727;42.624;23.406;2023-02-23T00:00:25;94699.03;;;9.58;64.26
3428;BME280;1727;42.624;23.406;2023-02-23T00:02:54;94707.16;;;9.55;64.16
3428;BME280;1727;42.624;23.406;2023-02-23T00:05:23;94706.19;;;9.36;64.80
3428;BME280;1727;42.624;23.406;2023-02-23T00:07:51;94704.66;;;9.33;65.31
3428;BME280;1727;42.624;23.406;2023-02-23T00:10:19;94709.50;;;9.38;65.04
3428;BME280;1727;42.624;23.406;2023-02-23T00:12:49;94716.97;;;9.42;64.79
3428;BME280;1727;42.624;23.406;2023-02-23T00:15:16;94715.31;;;9.41;64.94
3428;BME280;1727;42.624;23.406;2023-02-23T00:17:42;94717.53;;;9.46;65.34
3428;BME280;1727;42.624;23.406;2023-02-23T00:20:12;94722.53;;;9.49;64.47
3428;BME280;1727;42.624;23.406;2023-02-23T00:22:41;94712.50;;;9.54;64.45
3428;BME280;1727;42.624;23.406;2023-02-23T00:25:10;94713.34;;;9.54;64.80
3428;BME280;1727;42.624;23.406;2023-02-23T00:27:37;94716.66;;;9.56;64.39
3428;BME280;1727;42.624;23.406;2023-02-23T00:30:10;94715.56;;;9.59;64.95
3428;BME280;1727;42.624;23.406;2023-02-23T00:32:37;94714.88;;;9.57;64.49
3428;BME280;1727;42.624;23.406;2023-02-23T00:35:05;94714.19;;;9.55;64.38
3428;BME280;1727;42.624;23.406;2023-02-23T00:37:35;94715.09;;;9.54;64.84
3428;BME280;1727;42.624;23.406;2023-02-23T00:40:04;94707.50;;;9.51;64.77
3428;BME280;1727;42.624;23.406;2023-02-23T00:42:39;94711.34;;;9.47;65.21
3428;BME280;1727;42.624;23.406;2023-02-23T00:45:07;94710.19;;;9.40;65.05
3428;BME280;1727;42.624;23.406;2023-02-23T00:47:41;94710.97;;;9.30;65.58
3428;BME280;1727;42.624;23.406;2023-02-23T00:50:11;94712.41;;;9.23;65.68
3428;BME280;1727;42.624;23.406;2023-02-23T00:52:39;94714.13;;;9.13;66.08
3428;BME280;1727;42.624;23.406;2023-02-23T00:55:07;94709.97;;;9.11;66.42
3428;BME280;1727;42.624;23.406;2023-02-23T00:57:34;94701.09;;;9.02;66.62
3428;BME280;1727;42.624;23.406;2023-02-23T01:00:03;94705.88;;;8.97;66.74
3428;BME280;1727;42.624;23.406;2023-02-23T01:02:38;94709.44;;;8.96;67.06
3428;BME280;1727;42.624;23.406;2023-02-23T01:05:07;94710.63;;;8.92;67.08
3428;BME280;1727;42.624;23.406;2023-02-23T01:07:35;94702.34;;;8.87;67.14
3428;BME280;1727;42.624;23.406;2023-02-23T01:10:02;94707.56;;;8.87;67.29
3428;BME280;1727;42.624;23.406;2023-02-23T01:12:43;94701.31;;;8.78;67.45
3428;BME280;1727;42.624;23.406;2023-02-23T01:15:11;94709.41;;;8.75;67.66
3428;BME280;1727;42.624;23.406;2023-02-23T01:17:38;94699.31;;;8.71;68.05
3428;BME280;1727;42.624;23.406;2023-02-23T01:20:06;94706.09;;;8.62;69.17
3428;BME280;1727;42.624;23.406;2023-02-23T01:22:40;94703.16;;;8.55;68.79
3428;BME280;1727;42.624;23.406;2023-02-23T01:25:08;94689.53;;;8.41;68.83
3428;BME280;1727;42.624;23.406;2023-02-23T01:27:35;94707.72;;;8.42;68.92
3428;BME280;1727;42.624;23.406;2023-02-23T01:30:02;94700.94;;;8.40;69.09
3428;BME280;1727;42.624;23.406;2023-02-23T01:32:30;94697.00;;;8.34;69.95
3428;BME280;1727;42.624;23.406;2023-02-23T01:34:57;94695.22;;;8.34;69.47
3428;BME280;1727;42.624;23.406;2023-02-23T01:37:23;94701.53;;;8.43;69.35
3428;BME280;1727;42.624;23.406;2023-02-23T01:39:50;94702.81;;;8.49;69.21
3428;BME280;1727;42.624;23.406;2023-02-23T01:42:17;94710.03;;;8.56;68.90
3428;BME280;1727;42.624;23.406;2023-02-23T01:47:49;94695.31;;;8.55;69.01
3428;BME280;1727;42.624;23.406;2023-02-23T01:50:17;94695.31;;;8.55;68.76
3428;BME280;1727;42.624;23.406;2023-02-23T01:52:45;94698.63;;;8.57;68.60
3428;BME280;1727;42.624;23.406;2023-02-23T01:55:14;94694.34;;;8.56;69.06
3428;BME280;1727;42.624;23.406;2023-02-23T01:57:49;94690.06;;;8.55;68.43
3428;BME280;1727;42.624;23.406;2023-02-23T02:00:18;94690.53;;;8.60;68.39
3428;BME280;1727;42.624;23.406;2023-02-23T02:02:51;94695.06;;;8.58;68.50
3428;BME280;1727;42.624;23.406;2023-02-23T02:05:19;94691.72;;;8.56;68.25
3428;BME280;1727;42.624;23.406;2023-02-23T02:07:48;94692.19;;;8.61;68.19
3428;BME280;1727;42.624;23.406;2023-02-23T02:10:23;94696.59;;;8.61;67.88
3428;BME280;1727;42.624;23.406;2023-02-23T02:13:14;94694.81;;;8.61;68.01
3428;BME280;1727;42.624;23.406;2023-02-23T02:18:41;94697.28;;;8.63;68.23
3428;BME280;1727;42.624;23.406;2023-02-23T02:21:35;94697.91;;;8.55;68.06
3428;BME280;1727;42.624;23.406;2023-02-23T02:24:23;94689.38;;;8.53;68.25
3428;BME280;1727;42.624;23.406;2023-02-23T02:27:09;94694.47;;;8.55;68.55
3428;BME280;1727;42.624;23.406;2023-02-23T02:30:16;94694.38;;;8.45;68.05
3428;BME280;1727;42.624;23.406;2023-02-23T02:33:14;94698.41;;;8.27;68.27
3428;BME280;1727;42.624;23.406;2023-02-23T02:38:52;94696.91;;;8.13;68.59
3428;BME280;1727;42.624;23.406;2023-02-23T02:41:30;94704.63;;;8.15;68.88
3428;BME280;1727;42.624;23.406;2023-02-23T02:44:08;94692.00;;;8.08;69.24
3428;BME280;1727;42.624;23.406;2023-02-23T02:46:39;94691.91;;;7.99;69.71
3428;BME280;1727;42.624;23.406;2023-02-23T02:49:12;94690.94;;;8.00;69.42
3428;BME280;1727;42.624;23.406;2023-02-23T02:51:46;94690.59;;;7.93;70.07
3428;BME280;1727;42.624;23.406;2023-02-23T02:54:22;94690.72;;;7.92;70.38
3428;BME280;1727;42.624;23.406;2023-02-23T02:56:51;94694.28;;;7.91;70.73
3428;BME280;1727;42.624;23.406;2023-02-23T02:59:22;94682.06;;;7.91;70.29
3428;BME280;1727;42.624;23.406;2023-02-23T03:02:13;94685.50;;;7.81;70.14
3428;BME280;1727;42.624;23.406;2023-02-23T03:04:58;94689.28;;;7.54;72.21
3428;BME280;1727;42.624;23.406;2023-02-23T03:07:49;94682.28;;;7.66;72.18
3428;BME280;1727;42.624;23.406;2023-02-23T03:10:43;94699.00;;;7.63;72.06
3428;BME280;1727;42.624;23.406;2023-02-23T03:13:38;94697.72;;;7.69;72.33
3428;BME280;1727;42.624;23.406;2023-02-23T03:16:30;94699.69;;;7.43;72.85
3428;BME280;1727;42.624;23.406;2023-02-23T03:19:24;94700.28;;;7.46;73.63
3428;BME280;1727;42.624;23.406;2023-02-23T03:22:16;94706.72;;;7.54;74.03
3428;BME280;1727;42.624;23.406;2023-02-23T03:25:05;94704.47;;;7.60;73.08
3428;BME280;1727;42.624;23.406;2023-02-23T03:27:57;94707.31;;;7.68;72.75
3428;BME280;1727;42.624;23.406;2023-02-23T03:30:50;94708.63;;;7.74;72.71
3428;BME280;1727;42.624;23.406;2023-02-23T03:33:44;94703.88;;;7.79;72.15
3428;BME280;1727;42.624;23.406;2023-02-23T03:36:35;94705.94;;;7.87;72.21
3428;BME280;1727;42.624;23.406;2023-02-23T03:39:25;94710.66;;;7.93;72.02
3428;BME280;1727;42.624;23.406;2023-02-23T03:42:15;94704.97;;;7.99;71.68
3428;BME280;1727;42.624;23.406;2023-02-23T03:45:04;94700.31;;;8.02;71.19
3428;BME280;1727;42.624;23.406;2023-02-23T03:47:52;94699.00;;;8.08;70.69
3428;BME280;1727;42.624;23.406;2023-02-23T03:50:42;94713.75;;;8.09;70.42
3428;BME280;1727;42.624;23.406;2023-02-23T03:53:34;94708.41;;;8.11;70.22
3428;BME280;1727;42.624;23.406;2023-02-23T03:56:25;94711.88;;;8.11;70.03
3428;BME280;1727;42.624;23.406;2023-02-23T03:59:11;94714.69;;;8.08;70.05
3428;BME280;1727;42.624;23.406;2023-02-23T04:01:59;94715.75;;;8.05;70.09
3428;BME280;1727;42.624;23.406;2023-02-23T04:04:45;94711.38;;;8.06;69.94
3428;BME280;1727;42.624;23.406;2023-02-23T04:07:32;94712.00;;;8.10;70.09
3428;BME280;1727;42.624;23.406;2023-02-23T04:10:17;94724.09;;;8.11;70.00
3428;BME280;1727;42.624;23.406;2023-02-23T04:13:06;94716.34;;;8.09;69.95
3428;BME280;1727;42.624;23.406;2023-02-23T04:15:46;94718.25;;;8.07;70.16
3428;BME280;1727;42.624;23.406;2023-02-23T04:18:16;94723.59;;;8.05;69.78
3428;BME280;1727;42.624;23.406;2023-02-23T04:20:43;94728.13;;;8.03;69.36
3428;BME280;1727;42.624;23.406;2023-02-23T04:23:10;94723.38;;;7.97;68.82
3428;BME280;1727;42.624;23.406;2023-02-23T04:25:37;94726.47;;;7.91;69.37
3428;BME280;1727;42.624;23.406;2023-02-23T04:28:04;94717.69;;;7.81;69.76
3428;BME280;1727;42.624;23.406;2023-02-23T04:30:31;94721.56;;;7.75;70.03
3428;BME280;1727;42.624;23.406;2023-02-23T04:32:58;94721.09;;;7.70;70.44
3428;BME280;1727;42.624;23.406;2023-02-23T04:35:27;94721.69;;;7.63;70.48
3428;BME280;1727;42.624;23.406;2023-02-23T04:37:57;94722.28;;;7.55;70.68
3428;BME280;1727;42.624;23.406;2023-02-23T04:40:24;94721.06;;;7.48;71.34
3428;BME280;1727;42.624;23.406;2023-02-23T04:42:51;94719.38;;;7.47;71.84
3428;BME280;1727;42.624;23.406;2023-02-23T04:45:19;94726.38;;;7.46;71.94
3428;BME280;1727;42.624;23.406;2023-02-23T04:47:46;94724.13;;;7.42;72.65
3428;BME280;1727;42.624;23.406;2023-02-23T04:50:13;94716.28;;;7.42;73.22
3428;BME280;1727;42.624;23.406;2023-02-23T04:52:42;94719.25;;;7.37;73.26
3428;BME280;1727;42.624;23.406;2023-02-23T04:55:15;94723.53;;;7.38;73.56
3428;BME280;1727;42.624;23.406;2023-02-23T04:57:42;94722.59;;;7.39;72.95
3428;BME280;1727;42.624;23.406;2023-02-23T05:00:10;94720.09;;;7.38;73.39
3428;BME280;1727;42.624;23.406;2023-02-23T05:02:37;94730.31;;;7.41;73.45
3428;BME280;1727;42.624;23.406;2023-02-23T05:05:05;94732.91;;;7.41;73.08
3428;BME280;1727;42.624;23.406;2023-02-23T05:07:32;94730.06;;;7.44;73.09
3428;BME280;1727;42.624;23.406;2023-02-23T05:10:00;94729.59;;;7.50;72.96
3428;BME280;1727;42.624;23.406;2023-02-23T05:12:26;94738.88;;;7.54;72.41
3428;BME280;1727;42.624;23.406;2023-02-23T05:14:53;94727.50;;;7.55;72.46
3428;BME280;1727;42.624;23.406;2023-02-23T05:17:20;94731.66;;;7.58;72.42
3428;BME280;1727;42.624;23.406;2023-02-23T05:19:47;94737.56;;;7.13;72.82
3428;BME280;1727;42.624;23.406;2023-02-23T05:22:14;94737.69;;;6.88;74.23
3428;BME280;1727;42.624;23.406;2023-02-23T05:24:41;94742.72;;;6.67;74.61
3428;BME280;1727;42.624;23.406;2023-02-23T05:27:10;94744.06;;;6.60;75.74
3428;BME280;1727;42.624;23.406;2023-02-23T05:29:38;94742.19;;;6.62;75.54
3428;BME280;1727;42.624;23.406;2023-02-23T05:32:05;94754.47;;;6.73;75.57
3428;BME280;1727;42.624;23.406;2023-02-23T05:34:31;94755.34;;;6.84;76.36
3428;BME280;1727;42.624;23.406;2023-02-23T05:36:58;94745.63;;;7.10;77.16
3428;BME280;1727;42.624;23.406;2023-02-23T05:39:25;94752.59;;;7.45;75.17
3428;BME280;1727;42.624;23.406;2023-02-23T05:41:52;94754.25;;;7.81;73.63
3428;BME280;1727;42.624;23.406;2023-02-23T05:44:20;94758.16;;;8.09;72.57
3428;BME280;1727;42.624;23.406;2023-02-23T05:46:47;94759.41;;;8.38;71.39
3428;BME280;1727;42.624;23.406;2023-02-23T05:49:13;94772.06;;;8.65;70.79
3428;BME280;1727;42.624;23.406;2023-02-23T05:51:40;94770.81;;;9.03;69.55
3428;BME280;1727;42.624;23.406;2023-02-23T05:54:08;94764.41;;;9.28;68.04
3428;BME280;1727;42.624;23.406;2023-02-23T05:56:34;94779.38;;;9.37;67.36
3428;BME280;1727;42.624;23.406;2023-02-23T05:59:01;94771.97;;;9.42;66.81
3428;BME280;1727;42.624;23.406;2023-02-23T06:01:31;94778.44;;;9.59;67.25
3428;BME280;1727;42.624;23.406;2023-02-23T06:03:58;94780.03;;;9.92;65.97
3428;BME280;1727;42.624;23.406;2023-02-23T06:06:25;94785.03;;;10.46;64.26
3428;BME280;1727;42.624;23.406;2023-02-23T06:08:52;94774.31;;;11.09;61.09
3428;BME280;1727;42.624;23.406;2023-02-23T06:11:19;94774.88;;;11.41;59.89
3428;BME280;1727;42.624;23.406;2023-02-23T06:13:46;94785.69;;;11.58;59.60
3428;BME280;1727;42.624;23.406;2023-02-23T06:16:13;94788.56;;;11.84;59.16
3428;BME280;1727;42.624;23.406;2023-02-23T06:18:42;94787.44;;;12.05;58.17
3428;BME280;1727;42.624;23.406;2023-02-23T06:21:09;94791.16;;;12.22;57.52
3428;BME280;1727;42.624;23.406;2023-02-23T06:23:35;94790.97;;;12.33;57.75
3428;BME280;1727;42.624;23.406;2023-02-23T06:26:03;94787.44;;;12.15;58.12
3428;BME280;1727;42.624;23.406;2023-02-23T06:28:30;94790.34;;;12.12;57.21
3428;BME280;1727;42.624;23.406;2023-02-23T06:30:57;94795.34;;;12.15;58.14
3428;BME280;1727;42.624;23.406;2023-02-23T06:33:24;94795.56;;;12.31;57.04
3428;BME280;1727;42.624;23.406;2023-02-23T06:35:52;94791.34;;;12.01;57.39
3428;BME280;1727;42.624;23.406;2023-02-23T06:38:20;94795.47;;;11.56;59.43
3428;BME280;1727;42.624;23.406;2023-02-23T06:40:48;94795.75;;;11.53;60.32
3428;BME280;1727;42.624;23.406;2023-02-23T06:43:15;94806.00;;;11.65;60.00
3428;BME280;1727;42.624;23.406;2023-02-23T06:45:41;94800.72;;;11.56;59.48
3428;BME280;1727;42.624;23.406;2023-02-23T06:48:08;94801.72;;;11.84;59.19
3428;BME280;1727;42.624;23.406;2023-02-23T06:50:35;94804.63;;;12.00;58.53
3428;BME280;1727;42.624;23.406;2023-02-23T06:53:03;94801.22;;;12.36;59.22
3428;BME280;1727;42.624;23.406;2023-02-23T06:55:30;94804.19;;;12.61;57.24
3428;BME280;1727;42.624;23.406;2023-02-23T06:57:57;94805.53;;;12.75;57.17
3428;BME280;1727;42.624;23.406;2023-02-23T07:00:24;94803.44;;;12.78;56.87
3428;BME280;1727;42.624;23.406;2023-02-23T07:02:51;94800.25;;;12.75;56.78
3428;BME280;1727;42.624;23.406;2023-02-23T07:05:18;94804.97;;;12.71;57.37
3428;BME280;1727;42.624;23.406;2023-02-23T07:07:45;94801.13;;;12.65;57.80
3428;BME280;1727;42.624;23.406;2023-02-23T07:10:13;94794.44;;;12.71;58.19
3428;BME280;1727;42.624;23.406;2023-02-23T07:12:40;94797.47;;;12.49;58.81
3428;BME280;1727;42.624;23.406;2023-02-23T07:15:08;94801.91;;;12.38;59.14
3428;BME280;1727;42.624;23.406;2023-02-23T07:17:35;94805.66;;;12.36;59.20
3428;BME280;1727;42.624;23.406;2023-02-23T07:20:02;94803.94;;;12.54;59.56
3428;BME280;1727;42.624;23.406;2023-02-23T07:22:29;94800.63;;;12.52;58.93
3428;BME280;1727;42.624;23.406;2023-02-23T07:24:58;94804.47;;;12.58;58.85
3428;BME280;1727;42.624;23.406;2023-02-23T07:27:26;94804.88;;;12.63;58.96
3428;BME280;1727;42.624;23.406;2023-02-23T07:29:53;94799.78;;;12.52;59.09
3428;BME280;1727;42.624;23.406;2023-02-23T07:32:20;94804.69;;;12.37;59.24
3428;BME280;1727;42.624;23.406;2023-02-23T07:34:47;94794.09;;;12.19;59.69
3428;BME280;1727;42.624;23.406;2023-02-23T07:37:14;94805.88;;;12.15;60.83
3428;BME280;1727;42.624;23.406;2023-02-23T07:39:41;94792.72;;;12.05;60.05
3428;BME280;1727;42.624;23.406;2023-02-23T07:42:08;94796.59;;;12.01;61.09
3428;BME280;1727;42.624;23.406;2023-02-23T07:44:36;94798.53;;;11.99;60.04
3428;BME280;1727;42.624;23.406;2023-02-23T07:47:03;94790.38;;;12.02;60.39
3428;BME280;1727;42.624;23.406;2023-02-23T07:49:30;94796.03;;;12.17;59.24
3428;BME280;1727;42.624;23.406;2023-02-23T07:51:57;94793.09;;;12.20;59.84
3428;BME280;1727;42.624;23.406;2023-02-23T07:54:24;94794.88;;;12.29;58.50
3428;BME280;1727;42.624;23.406;2023-02-23T07:56:51;94789.44;;;12.40;59.36
3428;BME280;1727;42.624;23.406;2023-02-23T07:59:17;94785.44;;;12.36;58.54
3428;BME280;1727;42.624;23.406;2023-02-23T08:01:46;94788.72;;;12.48;58.57
3428;BME280;1727;42.624;23.406;2023-02-23T08:04:12;94783.91;;;12.44;58.73
3428;BME280;1727;42.624;23.406;2023-02-23T08:06:39;94784.59;;;12.46;58.78
3428;BME280;1727;42.624;23.406;2023-02-23T08:09:06;94787.91;;;12.38;60.18
3428;BME280;1727;42.624;23.406;2023-02-23T08:11:33;94776.56;;;12.37;59.81
3428;BME280;1727;42.624;23.406;2023-02-23T08:14:00;94779.41;;;12.54;60.15
3428;BME280;1727;42.624;23.406;2023-02-23T08:16:27;94777.41;;;12.65;59.29
3428;BME280;1727;42.624;23.406;2023-02-23T08:18:57;94781.72;;;12.94;58.56
3428;BME280;1727;42.624;23.406;2023-02-23T08:21:24;94774.00;;;13.10;56.80
3428;BME280;1727;42.624;23.406;2023-02-23T08:23:51;94780.28;;;13.27;56.70
3428;BME280;1727;42.624;23.406;2023-02-23T08:26:17;94780.91;;;13.21;56.89
3428;BME280;1727;42.624;23.406;2023-02-23T08:28:44;94781.69;;;13.31;56.03
3428;BME280;1727;42.624;23.406;2023-02-23T08:31:12;94776.16;;;13.24;55.82
3428;BME280;1727;42.624;23.406;2023-02-23T08:33:40;94780.56;;;13.33;56.08
3428;BME280;1727;42.624;23.406;2023-02-23T08:36:08;94771.88;;;13.41;56.17
3428;BME280;1727;42.624;23.406;2023-02-23T08:38:35;94779.78;;;13.23;56.17
3428;BME280;1727;42.624;23.406;2023-02-23T08:41:02;94772.69;;;13.24;56.12
3428;BME280;1727;42.624;23.406;2023-02-23T08:43:29;94778.06;;;13.32;56.47
3428;BME280;1727;42.624;23.406;2023-02-23T08:45:56;94776.56;;;13.47;55.61
3428;BME280;1727;42.624;23.406;2023-02-23T08:48:23;94779.34;;;13.46;55.38
3428;BME280;1727;42.624;23.406;2023-02-23T08:50:54;94776.94;;;13.70;55.16
3428;BME280;1727;42.624;23.406;2023-02-23T08:53:23;94764.47;;;13.98;55.22
3428;BME280;1727;42.624;23.406;2023-02-23T08:55:55;94773.63;;;14.12;55.14
3428;BME280;1727;42.624;23.406;2023-02-23T08:58:22;94767.47;;;14.03;54.20
3428;BME280;1727;42.624;23.406;2023-02-23T09:00:49;94768.19;;;14.13;54.29
3428;BME280;1727;42.624;23.406;2023-02-23T09:03:15;94767.00;;;14.34;53.53
3428;BME280;1727;42.624;23.406;2023-02-23T09:05:44;94763.28;;;14.44;53.09
3428;BME280;1727;42.624;23.406;2023-02-23T09:08:12;94755.16;;;14.64;52.61
3428;BME280;1727;42.624;23.406;2023-02-23T09:10:41;94767.31;;;14.91;52.42
3428;BME280;1727;42.624;23.406;2023-02-23T09:13:09;94766.03;;;15.03;51.87
3428;BME280;1727;42.624;23.406;2023-02-23T09:15:36;94769.19;;;15.06;50.95
3428;BME280;1727;42.624;23.406;2023-02-23T09:18:04;94765.09;;;15.20;50.19
3428;BME280;1727;42.624;23.406;2023-02-23T09:20:31;94760.19;;;15.33;50.87
3428;BME280;1727;42.624;23.406;2023-02-23T09:22:58;94762.13;;;15.23;49.95
3428;BME280;1727;42.624;23.406;2023-02-23T09:25:25;94763.78;;;15.24;50.06
3428;BME280;1727;42.624;23.406;2023-02-23T09:27:55;94763.78;;;15.24;49.90
3428;BME280;1727;42.624;23.406;2023-02-23T09:30:24;94751.09;;;15.36;49.05
3428;BME280;1727;42.624;23.406;2023-02-23T09:32:52;94749.13;;;15.54;49.80
3428;BME280;1727;42.624;23.406;2023-02-23T09:35:21;94753.25;;;15.57;49.09
3428;BME280;1727;42.624;23.406;2023-02-23T09:37:50;94752.78;;;15.53;48.81
3428;BME280;1727;42.624;23.406;2023-02-23T09:40:20;94753.25;;;15.57;49.55
3428;BME280;1727;42.624;23.406;2023-02-23T09:42:56;94759.59;;;15.64;49.28
3428;BME280;1727;42.624;23.406;2023-02-23T09:45:28;94751.97;;;15.61;49.31
3428;BME280;1727;42.624;23.406;2023-02-23T09:48:10;94750.84;;;15.63;50.21
3428;BME280;1727;42.624;23.406;2023-02-23T09:50:43;94751.69;;;15.64;49.31
3428;BME280;1727;42.624;23.406;2023-02-23T09:53:23;94752.97;;;15.60;50.00
3428;BME280;1727;42.624;23.406;2023-02-23T09:55:52;94757.88;;;15.55;50.16
3428;BME280;1727;42.624;23.406;2023-02-23T09:58:23;94752.84;;;15.61;50.35
3428;BME280;1727;42.624;23.406;2023-02-23T10:01:13;94742.75;;;15.73;50.18
3428;BME280;1727;42.624;23.406;2023-02-23T10:03:49;94748.34;;;15.86;50.54
3428;BME280;1727;42.624;23.406;2023-02-23T10:06:18;94747.53;;;16.02;50.04
3428;BME280;1727;42.624;23.406;2023-02-23T10:08:53;94741.41;;;16.01;49.50
3428;BME280;1727;42.624;23.406;2023-02-23T10:11:26;94739.25;;;15.80;50.20
3428;BME280;1727;42.624;23.406;2023-02-23T10:14:14;94734.78;;;15.81;49.67
3428;BME280;1727;42.624;23.406;2023-02-23T10:16:55;94735.28;;;15.85;49.92
3428;BME280;1727;42.624;23.406;2023-02-23T10:19:31;94734.28;;;15.86;49.86
3428;BME280;1727;42.624;23.406;2023-02-23T10:22:02;94735.13;;;15.86;49.58
3428;BME280;1727;42.624;23.406;2023-02-23T10:24:34;94733.13;;;15.88;49.84
3428;BME280;1727;42.624;23.406;2023-02-23T10:27:06;94723.38;;;15.80;48.88
3428;BME280;1727;42.624;23.406;2023-02-23T10:29:40;94717.28;;;15.80;49.49
3428;BME280;1727;42.624;23.406;2023-02-23T10:32:15;94716.28;;;15.81;49.70
3428;BME280;1727;42.624;23.406;2023-02-23T10:34:45;94715.28;;;15.82;49.50
3428;BME280;1727;42.624;23.406;2023-02-23T10:37:15;94714.97;;;15.93;49.15
3428;BME280;1727;42.624;23.406;2023-02-23T10:39:42;94708.00;;;16.00;49.01
3428;BME280;1727;42.624;23.406;2023-02-23T10:42:13;94699.22;;;16.00;49.37
3428;BME280;1727;42.624;23.406;2023-02-23T10:44:43;94693.59;;;16.03;50.28
3428;BME280;1727;42.624;23.406;2023-02-23T10:47:14;94691.09;;;16.09;49.99
3428;BME280;1727;42.624;23.406;2023-02-23T10:49:44;94701.19;;;16.06;50.04
3428;BME280;1727;42.624;23.406;2023-02-23T10:52:14;94699.69;;;16.11;49.74
3428;BME280;1727;42.624;23.406;2023-02-23T10:54:43;94696.56;;;16.08;49.72
3428;BME280;1727;42.624;23.406;2023-02-23T10:57:19;94693.41;;;16.13;49.47
3428;BME280;1727;42.624;23.406;2023-02-23T11:00:05;94687.47;;;16.10;49.41
3428;BME280;1727;42.624;23.406;2023-02-23T11:02:33;94685.16;;;15.99;49.74
3428;BME280;1727;42.624;23.406;2023-02-23T11:05:03;94679.69;;;16.09;49.13
3428;BME280;1727;42.624;23.406;2023-02-23T11:07:31;94674.88;;;16.13;49.91
3428;BME280;1727;42.624;23.406;2023-02-23T11:10:19;94678.00;;;16.24;48.96
3428;BME280;1727;42.624;23.406;2023-02-23T11:12:46;94672.53;;;16.26;48.51
3428;BME280;1727;42.624;23.406;2023-02-23T11:15:26;94676.00;;;16.26;48.72
3428;BME280;1727;42.624;23.406;2023-02-23T11:17:54;94673.06;;;16.13;49.02
3428;BME280;1727;42.624;23.406;2023-02-23T11:20:25;94661.69;;;15.88;49.21
3428;BME280;1727;42.624;23.406;2023-02-23T11:22:54;94663.31;;;16.05;50.07
3428;BME280;1727;42.624;23.406;2023-02-23T11:25:25;94661.94;;;16.18;48.95
3428;BME280;1727;42.624;23.406;2023-02-23T11:27:53;94661.63;;;16.21;49.17
3428;BME280;1727;42.624;23.406;2023-02-23T11:30:24;94658.31;;;16.27;49.32
3428;BME280;1727;42.624;23.406;2023-02-23T11:32:56;94652.47;;;16.39;51.25
3428;BME280;1727;42.624;23.406;2023-02-23T11:35:30;94656.88;;;16.47;48.75
3428;BME280;1727;42.624;23.406;2023-02-23T11:37:57;94653.09;;;16.41;48.70
3428;BME280;1727;42.624;23.406;2023-02-23T11:40:25;94648.44;;;16.52;49.08
3428;BME280;1727;42.624;23.406;2023-02-23T11:42:54;94654.19;;;16.63;48.29
3428;BME280;1727;42.624;23.406;2023-02-23T11:45:24;94642.41;;;16.74;48.42
3428;BME280;1727;42.624;23.406;2023-02-23T11:47:54;94643.38;;;16.81;48.59
3428;BME280;1727;42.624;23.406;2023-02-23T11:50:25;94638.28;;;16.71;47.21
3428;BME280;1727;42.624;23.406;2023-02-23T11:52:56;94634.63;;;16.72;48.02
3428;BME280;1727;42.624;23.406;2023-02-23T11:55:26;94643.56;;;16.71;47.95
3428;BME280;1727;42.624;23.406;2023-02-23T11:58:07;94637.09;;;16.74;47.60
3428;BME280;1727;42.624;23.406;2023-02-23T12:00:36;94636.06;;;16.83;47.60
3428;BME280;1727;42.624;23.406;2023-02-23T12:03:03;94640.19;;;16.86;47.67
3428;BME280;1727;42.624;23.406;2023-02-23T12:05:32;94635.00;;;16.92;47.77
3428;BME280;1727;42.624;23.406;2023-02-23T12:08:02;94634.63;;;16.72;47.19
3428;BME280;1727;42.624;23.406;2023-02-23T12:10:32;94632.16;;;16.71;47.42
3428;BME280;1727;42.624;23.406;2023-02-23T12:13:09;94633.97;;;16.70;46.75
3428;BME280;1727;42.624;23.406;2023-02-23T12:15:47;94626.28;;;16.84;47.32
3428;BME280;1727;42.624;23.406;2023-02-23T12:18:30;94624.59;;;16.91;46.90
3428;BME280;1727;42.624;23.406;2023-02-23T12:21:12;94621.34;;;17.03;46.46
3428;BME280;1727;42.624;23.406;2023-02-23T12:23:44;94620.53;;;17.03;46.72
3428;BME280;1727;42.624;23.406;2023-02-23T12:26:15;94616.84;;;17.12;47.91
3428;BME280;1727;42.624;23.406;2023-02-23T12:28:50;94613.53;;;17.10;46.06
3428;BME280;1727;42.624;23.406;2023-02-23T12:31:25;94617.47;;;17.14;46.26
3428;BME280;1727;42.624;23.406;2023-02-23T12:33:58;94610.28;;;17.23;46.11
3428;BME280;1727;42.624;23.406;2023-02-23T12:36:31;94606.91;;;17.29;45.72
3428;BME280;1727;42.624;23.406;2023-02-23T12:39:03;94613.31;;;17.34;46.38
3428;BME280;1727;42.624;23.406;2023-02-23T12:41:35;94615.66;;;17.38;45.71
3428;BME280;1727;42.624;23.406;2023-02-23T12:44:10;94613.00;;;17.15;45.59
3428;BME280;1727;42.624;23.406;2023-02-23T12:46:45;94611.41;;;17.28;45.03
3428;BME280;1727;42.624;23.406;2023-02-23T12:49:19;94610.56;;;17.05;45.05
3428;BME280;1727;42.624;23.406;2023-02-23T12:51:52;94611.28;;;16.99;45.20
3428;BME280;1727;42.624;23.406;2023-02-23T12:54:19;94618.88;;;17.02;45.70
3428;BME280;1727;42.624;23.406;2023-02-23T12:56:53;94617.38;;;17.08;45.01
3428;BME280;1727;42.624;23.406;2023-02-23T12:59:46;94609.16;;;17.17;46.05
3428;BME280;1727;42.624;23.406;2023-02-23T13:02:23;94603.50;;;17.20;45.25
3428;BME280;1727;42.624;23.406;2023-02-23T13:05:15;94605.81;;;17.23;44.84
3428;BME280;1727;42.624;23.406;2023-02-23T13:07:52;94599.59;;;17.31;44.67
3428;BME280;1727;42.624;23.406;2023-02-23T13:10:31;94598.97;;;17.29;43.83
3428;BME280;1727;42.624;23.406;2023-02-23T13:13:15;94589.06;;;17.23;44.28
3428;BME280;1727;42.624;23.406;2023-02-23T13:15:57;94598.50;;;17.25;44.22
3428;BME280;1727;42.624;23.406;2023-02-23T13:18:31;94599.31;;;17.26;44.01
3428;BME280;1727;42.624;23.406;2023-02-23T13:21:06;94596.03;;;17.24;43.64
3428;BME280;1727;42.624;23.406;2023-02-23T13:23:41;94596.31;;;17.29;44.33
3428;BME280;1727;42.624;23.406;2023-02-23T13:26:18;94593.78;;;17.36;44.07
3428;BME280;1727;42.624;23.406;2023-02-23T13:28:53;94594.63;;;17.36;44.70
3428;BME280;1727;42.624;23.406;2023-02-23T13:31:25;94593.06;;;17.42;44.61
3428;BME280;1727;42.624;23.406;2023-02-23T13:33:56;94594.00;;;17.49;44.25
3428;BME280;1727;42.624;23.406;2023-02-23T13:36:25;94590.16;;;17.51;44.34
3428;BME280;1727;42.624;23.406;2023-02-23T13:41:54;94584.94;;;17.43;44.17
3428;BME280;1727;42.624;23.406;2023-02-23T13:44:26;94586.69;;;17.51;44.70
3428;BME280;1727;42.624;23.406;2023-02-23T13:47:00;94588.03;;;17.47;43.47
3428;BME280;1727;42.624;23.406;2023-02-23T13:49:36;94582.09;;;17.45;43.51
3428;BME280;1727;42.624;23.406;2023-02-23T13:52:18;94583.47;;;17.41;43.47